sensor_id;sensor_type;location;lat;lon;timestamp;P1;durP1;ratioP1;P2;durP2;ratioP2
77018;SDS011;66044;53.142;17.962;2023-07-20T00:01:29;6.80;;;2.50;;
77018;SDS011;66044;53.142;17.962;2023-07-20T00:03:56;6.80;;;2.90;;
77018;SDS011;66044;53.142;17.962;2023-07-20T00:06:22;7.30;;;2.90;;
77018;SDS011;66044;53.142;17.962;2023-07-20T00:08:56;6.90;;;2.90;;
77018;SDS011;66044;53.142;17.962;2023-07-20T00:11:26;6.60;;;2.60;;
77018;SDS011;66044;53.142;17.962;2023-07-20T00:13:53;7.10;;;3.30;;
77018;SDS011;66044;53.142;17.962;2023-07-20T00:16:20;6.40;;;2.60;;
77018;SDS011;66044;53.142;17.962;2023-07-20T00:18:46;6.00;;;2.50;;
77018;SDS011;66044;53.142;17.962;2023-07-20T00:21:13;7.50;;;2.90;;
77018;SDS011;66044;53.142;17.962;2023-07-20T00:23:39;6.60;;;2.80;;
77018;SDS011;66044;53.142;17.962;2023-07-20T00:26:05;7.90;;;3.00;;
77018;SDS011;66044;53.142;17.962;2023-07-20T00:28:32;8.20;;;3.30;;
77018;SDS011;66044;53.142;17.962;2023-07-20T00:30:59;6.50;;;2.90;;
77018;SDS011;66044;53.142;17.962;2023-07-20T00:33:26;7.90;;;2.90;;
77018;SDS011;66044;53.142;17.962;2023-07-20T00:35:53;9.20;;;3.20;;
77018;SDS011;66044;53.142;17.962;2023-07-20T00:38:19;6.60;;;2.80;;
77018;SDS011;66044;53.142;17.962;2023-07-20T00:40:46;7.40;;;3.00;;
77018;SDS011;66044;53.142;17.962;2023-07-20T00:43:14;6.40;;;2.80;;
77018;SDS011;66044;53.142;17.962;2023-07-20T00:45:41;8.50;;;3.50;;
77018;SDS011;66044;53.142;17.962;2023-07-20T00:48:08;8.20;;;3.30;;
77018;SDS011;66044;53.142;17.962;2023-07-20T00:50:35;8.40;;;3.20;;
77018;SDS011;66044;53.142;17.962;2023-07-20T00:53:02;7.30;;;3.60;;
77018;SDS011;66044;53.142;17.962;2023-07-20T00:55:31;9.20;;;3.40;;
77018;SDS011;66044;53.142;17.962;2023-07-20T00:57:58;8.90;;;3.40;;
77018;SDS011;66044;53.142;17.962;2023-07-20T01:00:25;8.70;;;3.00;;
77018;SDS011;66044;53.142;17.962;2023-07-20T01:02:52;7.60;;;3.20;;
77018;SDS011;66044;53.142;17.962;2023-07-20T01:05:18;6.80;;;2.90;;
77018;SDS011;66044;53.142;17.962;2023-07-20T01:07:52;6.40;;;3.00;;
77018;SDS011;66044;53.142;17.962;2023-07-20T01:13:00;6.10;;;2.90;;
77018;SDS011;66044;53.142;17.962;2023-07-20T01:15:28;6.40;;;2.80;;
77018;SDS011;66044;53.142;17.962;2023-07-20T01:17:54;6.10;;;2.80;;
77018;SDS011;66044;53.142;17.962;2023-07-20T01:20:21;6.00;;;2.70;;
77018;SDS011;66044;53.142;17.962;2023-07-20T01:33:56;8.10;;;2.80;;
77018;SDS011;66044;53.142;17.962;2023-07-20T01:36:24;8.90;;;3.20;;
77018;SDS011;66044;53.142;17.962;2023-07-20T01:38:55;6.50;;;3.10;;
77018;SDS011;66044;53.142;17.962;2023-07-20T01:41:23;6.90;;;3.50;;
77018;SDS011;66044;53.142;17.962;2023-07-20T01:43:49;7.20;;;3.30;;
77018;SDS011;66044;53.142;17.962;2023-07-20T01:46:15;7.40;;;3.30;;
77018;SDS011;66044;53.142;17.962;2023-07-20T01:48:42;7.60;;;3.60;;
77018;SDS011;66044;53.142;17.962;2023-07-20T01:51:09;7.20;;;3.20;;
77018;SDS011;66044;53.142;17.962;2023-07-20T01:53:35;7.10;;;3.50;;
77018;SDS011;66044;53.142;17.962;2023-07-20T01:56:02;8.00;;;3.80;;
77018;SDS011;66044;53.142;17.962;2023-07-20T01:58:28;6.50;;;3.10;;
77018;SDS011;66044;53.142;17.962;2023-07-20T02:00:55;8.70;;;3.60;;
77018;SDS011;66044;53.142;17.962;2023-07-20T02:03:21;7.70;;;3.30;;
77018;SDS011;66044;53.142;17.962;2023-07-20T02:05:50;7.70;;;3.70;;
77018;SDS011;66044;53.142;17.962;2023-07-20T02:08:16;8.60;;;3.80;;
77018;SDS011;66044;53.142;17.962;2023-07-20T02:10:47;7.30;;;3.60;;
77018;SDS011;66044;53.142;17.962;2023-07-20T02:13:14;6.50;;;3.20;;
77018;SDS011;66044;53.142;17.962;2023-07-20T02:15:42;8.50;;;3.10;;
77018;SDS011;66044;53.142;17.962;2023-07-20T02:18:13;7.20;;;3.20;;
77018;SDS011;66044;53.142;17.962;2023-07-20T02:20:40;6.00;;;2.70;;
77018;SDS011;66044;53.142;17.962;2023-07-20T02:23:07;6.50;;;2.80;;
77018;SDS011;66044;53.142;17.962;2023-07-20T02:25:34;6.80;;;2.40;;
77018;SDS011;66044;53.142;17.962;2023-07-20T02:28:00;6.40;;;2.80;;
77018;SDS011;66044;53.142;17.962;2023-07-20T02:30:27;6.50;;;2.50;;
77018;SDS011;66044;53.142;17.962;2023-07-20T02:32:54;6.70;;;2.60;;
77018;SDS011;66044;53.142;17.962;2023-07-20T02:35:20;5.90;;;2.80;;
77018;SDS011;66044;53.142;17.962;2023-07-20T02:37:46;9.10;;;3.00;;
77018;SDS011;66044;53.142;17.962;2023-07-20T02:40:13;7.30;;;2.60;;
77018;SDS011;66044;53.142;17.962;2023-07-20T02:42:39;6.50;;;2.60;;
77018;SDS011;66044;53.142;17.962;2023-07-20T02:45:06;7.00;;;2.70;;
77018;SDS011;66044;53.142;17.962;2023-07-20T02:47:33;6.60;;;2.30;;
77018;SDS011;66044;53.142;17.962;2023-07-20T02:50:00;5.90;;;2.70;;
77018;SDS011;66044;53.142;17.962;2023-07-20T02:52:26;6.20;;;2.70;;
77018;SDS011;66044;53.142;17.962;2023-07-20T02:54:52;5.90;;;2.70;;
77018;SDS011;66044;53.142;17.962;2023-07-20T02:57:19;6.50;;;2.80;;
77018;SDS011;66044;53.142;17.962;2023-07-20T02:59:45;6.40;;;2.90;;
77018;SDS011;66044;53.142;17.962;2023-07-20T03:02:12;7.00;;;2.80;;
77018;SDS011;66044;53.142;17.962;2023-07-20T03:04:39;6.80;;;3.10;;
77018;SDS011;66044;53.142;17.962;2023-07-20T03:07:05;7.60;;;2.80;;
77018;SDS011;66044;53.142;17.962;2023-07-20T03:09:33;6.80;;;2.80;;
77018;SDS011;66044;53.142;17.962;2023-07-20T03:11:59;6.20;;;2.60;;
77018;SDS011;66044;53.142;17.962;2023-07-20T03:14:27;6.40;;;2.70;;
77018;SDS011;66044;53.142;17.962;2023-07-20T03:16:54;6.70;;;3.30;;
77018;SDS011;66044;53.142;17.962;2023-07-20T03:19:20;7.10;;;3.00;;
77018;SDS011;66044;53.142;17.962;2023-07-20T03:21:47;6.90;;;2.90;;
77018;SDS011;66044;53.142;17.962;2023-07-20T03:24:13;6.20;;;2.90;;
77018;SDS011;66044;53.142;17.962;2023-07-20T03:26:40;6.00;;;2.80;;
77018;SDS011;66044;53.142;17.962;2023-07-20T03:29:06;6.70;;;2.80;;
77018;SDS011;66044;53.142;17.962;2023-07-20T03:31:33;7.80;;;2.60;;
77018;SDS011;66044;53.142;17.962;2023-07-20T03:33:59;7.30;;;3.20;;
77018;SDS011;66044;53.142;17.962;2023-07-20T03:36:25;6.10;;;2.80;;
77018;SDS011;66044;53.142;17.962;2023-07-20T03:38:52;6.90;;;2.70;;
77018;SDS011;66044;53.142;17.962;2023-07-20T03:41:18;6.60;;;2.60;;
77018;SDS011;66044;53.142;17.962;2023-07-20T03:43:46;6.60;;;2.70;;
77018;SDS011;66044;53.142;17.962;2023-07-20T03:46:12;6.20;;;2.90;;
77018;SDS011;66044;53.142;17.962;2023-07-20T03:48:39;6.70;;;2.90;;
77018;SDS011;66044;53.142;17.962;2023-07-20T03:51:05;6.80;;;3.00;;
77018;SDS011;66044;53.142;17.962;2023-07-20T03:53:31;8.00;;;3.40;;
77018;SDS011;66044;53.142;17.962;2023-07-20T03:55:58;7.50;;;3.20;;
77018;SDS011;66044;53.142;17.962;2023-07-20T03:58:25;6.80;;;3.00;;
77018;SDS011;66044;53.142;17.962;2023-07-20T04:00:51;6.60;;;3.00;;
77018;SDS011;66044;53.142;17.962;2023-07-20T04:03:18;6.90;;;3.10;;
77018;SDS011;66044;53.142;17.962;2023-07-20T04:05:45;9.90;;;3.00;;
77018;SDS011;66044;53.142;17.962;2023-07-20T04:08:12;8.10;;;3.20;;
77018;SDS011;66044;53.142;17.962;2023-07-20T04:10:39;6.30;;;3.10;;
77018;SDS011;66044;53.142;17.962;2023-07-20T04:13:05;6.90;;;3.30;;
77018;SDS011;66044;53.142;17.962;2023-07-20T04:15:32;6.50;;;3.10;;
77018;SDS011;66044;53.142;17.962;2023-07-20T04:17:58;6.60;;;2.80;;
77018;SDS011;66044;53.142;17.962;2023-07-20T04:20:27;6.50;;;3.00;;
77018;SDS011;66044;53.142;17.962;2023-07-20T04:22:53;7.80;;;3.00;;
77018;SDS011;66044;53.142;17.962;2023-07-20T04:25:20;7.00;;;3.10;;
77018;SDS011;66044;53.142;17.962;2023-07-20T04:27:46;7.00;;;3.10;;
77018;SDS011;66044;53.142;17.962;2023-07-20T04:30:13;6.90;;;2.70;;
77018;SDS011;66044;53.142;17.962;2023-07-20T04:32:41;6.40;;;2.90;;
77018;SDS011;66044;53.142;17.962;2023-07-20T04:35:10;6.90;;;2.80;;
77018;SDS011;66044;53.142;17.962;2023-07-20T04:37:36;6.20;;;2.80;;
77018;SDS011;66044;53.142;17.962;2023-07-20T04:40:03;5.50;;;2.40;;
77018;SDS011;66044;53.142;17.962;2023-07-20T04:42:31;7.10;;;2.70;;
77018;SDS011;66044;53.142;17.962;2023-07-20T04:44:57;5.60;;;2.60;;
77018;SDS011;66044;53.142;17.962;2023-07-20T04:47:24;6.20;;;2.40;;
77018;SDS011;66044;53.142;17.962;2023-07-20T04:49:50;6.30;;;2.70;;
77018;SDS011;66044;53.142;17.962;2023-07-20T04:52:16;6.50;;;2.50;;
77018;SDS011;66044;53.142;17.962;2023-07-20T04:54:43;6.60;;;3.00;;
77018;SDS011;66044;53.142;17.962;2023-07-20T04:57:10;6.90;;;3.00;;
77018;SDS011;66044;53.142;17.962;2023-07-20T04:59:38;6.30;;;2.40;;
77018;SDS011;66044;53.142;17.962;2023-07-20T05:02:04;5.80;;;2.50;;
77018;SDS011;66044;53.142;17.962;2023-07-20T05:04:31;7.00;;;3.00;;
77018;SDS011;66044;53.142;17.962;2023-07-20T05:06:57;6.90;;;2.60;;
77018;SDS011;66044;53.142;17.962;2023-07-20T05:09:23;7.00;;;2.70;;
77018;SDS011;66044;53.142;17.962;2023-07-20T05:11:51;6.40;;;2.40;;
77018;SDS011;66044;53.142;17.962;2023-07-20T05:14:17;5.70;;;2.70;;
77018;SDS011;66044;53.142;17.962;2023-07-20T05:16:44;6.40;;;2.10;;
77018;SDS011;66044;53.142;17.962;2023-07-20T05:19:10;5.90;;;2.10;;
77018;SDS011;66044;53.142;17.962;2023-07-20T05:21:37;5.90;;;1.90;;
77018;SDS011;66044;53.142;17.962;2023-07-20T05:24:03;5.60;;;2.20;;
77018;SDS011;66044;53.142;17.962;2023-07-20T05:26:30;5.30;;;2.20;;
77018;SDS011;66044;53.142;17.962;2023-07-20T05:28:56;6.30;;;2.60;;
77018;SDS011;66044;53.142;17.962;2023-07-20T05:31:23;6.80;;;2.10;;
77018;SDS011;66044;53.142;17.962;2023-07-20T05:33:50;5.30;;;2.00;;
77018;SDS011;66044;53.142;17.962;2023-07-20T05:36:17;5.80;;;2.00;;
77018;SDS011;66044;53.142;17.962;2023-07-20T05:38:43;6.60;;;1.90;;
77018;SDS011;66044;53.142;17.962;2023-07-20T05:41:09;4.60;;;1.70;;
77018;SDS011;66044;53.142;17.962;2023-07-20T05:43:36;5.50;;;1.90;;
77018;SDS011;66044;53.142;17.962;2023-07-20T05:46:03;5.80;;;2.00;;
77018;SDS011;66044;53.142;17.962;2023-07-20T05:48:30;5.20;;;2.00;;
77018;SDS011;66044;53.142;17.962;2023-07-20T05:50:57;5.10;;;1.50;;
77018;SDS011;66044;53.142;17.962;2023-07-20T05:53:23;5.10;;;1.50;;
77018;SDS011;66044;53.142;17.962;2023-07-20T05:55:53;5.50;;;1.50;;
77018;SDS011;66044;53.142;17.962;2023-07-20T05:58:20;5.10;;;1.40;;
77018;SDS011;66044;53.142;17.962;2023-07-20T06:00:50;5.00;;;1.00;;
77018;SDS011;66044;53.142;17.962;2023-07-20T06:03:17;4.00;;;1.60;;
77018;SDS011;66044;53.142;17.962;2023-07-20T06:05:43;5.50;;;1.30;;
77018;SDS011;66044;53.142;17.962;2023-07-20T06:08:10;4.10;;;1.20;;
77018;SDS011;66044;53.142;17.962;2023-07-20T06:10:36;3.60;;;1.00;;
77018;SDS011;66044;53.142;17.962;2023-07-20T06:13:03;3.80;;;1.10;;
77018;SDS011;66044;53.142;17.962;2023-07-20T06:15:32;4.00;;;1.00;;
77018;SDS011;66044;53.142;17.962;2023-07-20T06:18:01;5.10;;;1.10;;
77018;SDS011;66044;53.142;17.962;2023-07-20T06:20:27;4.30;;;1.20;;
77018;SDS011;66044;53.142;17.962;2023-07-20T06:22:54;4.50;;;1.10;;
77018;SDS011;66044;53.142;17.962;2023-07-20T06:25:20;3.60;;;0.90;;
77018;SDS011;66044;53.142;17.962;2023-07-20T06:27:48;3.90;;;1.10;;
77018;SDS011;66044;53.142;17.962;2023-07-20T06:30:17;4.80;;;1.30;;
77018;SDS011;66044;53.142;17.962;2023-07-20T06:32:44;4.30;;;0.90;;
77018;SDS011;66044;53.142;17.962;2023-07-20T06:35:11;5.10;;;1.10;;
77018;SDS011;66044;53.142;17.962;2023-07-20T06:37:37;6.60;;;1.20;;
77018;SDS011;66044;53.142;17.962;2023-07-20T06:40:04;4.10;;;1.10;;
77018;SDS011;66044;53.142;17.962;2023-07-20T06:42:32;5.80;;;1.10;;
77018;SDS011;66044;53.142;17.962;2023-07-20T06:44:58;4.70;;;0.80;;
77018;SDS011;66044;53.142;17.962;2023-07-20T06:47:25;4.00;;;0.80;;
77018;SDS011;66044;53.142;17.962;2023-07-20T06:49:52;5.00;;;0.90;;
77018;SDS011;66044;53.142;17.962;2023-07-20T06:52:18;3.80;;;0.70;;
77018;SDS011;66044;53.142;17.962;2023-07-20T06:54:45;5.60;;;0.70;;
77018;SDS011;66044;53.142;17.962;2023-07-20T06:57:11;6.50;;;1.10;;
77018;SDS011;66044;53.142;17.962;2023-07-20T06:59:38;5.40;;;0.80;;
77018;SDS011;66044;53.142;17.962;2023-07-20T07:02:04;3.80;;;0.80;;
77018;SDS011;66044;53.142;17.962;2023-07-20T07:04:31;4.30;;;0.70;;
77018;SDS011;66044;53.142;17.962;2023-07-20T07:06:58;3.30;;;0.60;;
77018;SDS011;66044;53.142;17.962;2023-07-20T07:09:25;4.00;;;0.70;;
77018;SDS011;66044;53.142;17.962;2023-07-20T07:11:52;5.30;;;0.80;;
77018;SDS011;66044;53.142;17.962;2023-07-20T07:14:19;17.90;;;3.10;;
77018;SDS011;66044;53.142;17.962;2023-07-20T07:16:46;8.90;;;1.80;;
77018;SDS011;66044;53.142;17.962;2023-07-20T07:19:12;6.20;;;1.40;;
77018;SDS011;66044;53.142;17.962;2023-07-20T07:21:39;4.50;;;0.80;;
77018;SDS011;66044;53.142;17.962;2023-07-20T07:24:05;4.60;;;0.80;;
77018;SDS011;66044;53.142;17.962;2023-07-20T07:26:33;7.50;;;2.10;;
77018;SDS011;66044;53.142;17.962;2023-07-20T07:29:00;12.40;;;3.40;;
77018;SDS011;66044;53.142;17.962;2023-07-20T07:31:26;4.50;;;0.70;;
77018;SDS011;66044;53.142;17.962;2023-07-20T07:33:52;8.30;;;1.30;;
77018;SDS011;66044;53.142;17.962;2023-07-20T07:36:20;4.10;;;0.80;;
77018;SDS011;66044;53.142;17.962;2023-07-20T07:38:46;4.70;;;0.60;;
77018;SDS011;66044;53.142;17.962;2023-07-20T07:41:13;4.60;;;0.90;;
77018;SDS011;66044;53.142;17.962;2023-07-20T07:43:40;4.00;;;0.50;;
77018;SDS011;66044;53.142;17.962;2023-07-20T07:46:06;3.70;;;0.70;;
77018;SDS011;66044;53.142;17.962;2023-07-20T07:48:32;4.60;;;0.70;;
77018;SDS011;66044;53.142;17.962;2023-07-20T07:50:59;3.90;;;0.60;;
77018;SDS011;66044;53.142;17.962;2023-07-20T07:53:26;4.10;;;0.40;;
77018;SDS011;66044;53.142;17.962;2023-07-20T07:55:52;6.60;;;0.50;;
77018;SDS011;66044;53.142;17.962;2023-07-20T07:58:19;3.40;;;0.50;;
77018;SDS011;66044;53.142;17.962;2023-07-20T08:00:45;1.90;;;0.40;;
77018;SDS011;66044;53.142;17.962;2023-07-20T08:03:14;2.60;;;0.50;;
77018;SDS011;66044;53.142;17.962;2023-07-20T08:05:40;2.80;;;0.40;;
77018;SDS011;66044;53.142;17.962;2023-07-20T08:08:07;3.20;;;0.60;;
77018;SDS011;66044;53.142;17.962;2023-07-20T08:10:34;2.10;;;0.50;;
77018;SDS011;66044;53.142;17.962;2023-07-20T08:13:01;2.70;;;0.50;;
77018;SDS011;66044;53.142;17.962;2023-07-20T08:15:27;3.40;;;0.50;;
77018;SDS011;66044;53.142;17.962;2023-07-20T08:17:54;2.90;;;0.50;;
77018;SDS011;66044;53.142;17.962;2023-07-20T08:20:20;2.40;;;0.40;;
77018;SDS011;66044;53.142;17.962;2023-07-20T08:22:55;2.20;;;0.50;;
77018;SDS011;66044;53.142;17.962;2023-07-20T08:25:22;3.00;;;0.50;;
77018;SDS011;66044;53.142;17.962;2023-07-20T08:27:48;2.10;;;0.50;;
77018;SDS011;66044;53.142;17.962;2023-07-20T08:30:15;2.10;;;0.50;;
77018;SDS011;66044;53.142;17.962;2023-07-20T08:32:41;2.70;;;0.50;;
77018;SDS011;66044;53.142;17.962;2023-07-20T08:35:08;2.40;;;0.40;;
77018;SDS011;66044;53.142;17.962;2023-07-20T08:37:34;3.80;;;0.60;;
77018;SDS011;66044;53.142;17.962;2023-07-20T08:40:01;1.90;;;0.40;;
77018;SDS011;66044;53.142;17.962;2023-07-20T08:42:27;1.90;;;0.50;;
77018;SDS011;66044;53.142;17.962;2023-07-20T08:44:55;2.70;;;0.40;;
77018;SDS011;66044;53.142;17.962;2023-07-20T08:47:23;2.30;;;0.50;;
77018;SDS011;66044;53.142;17.962;2023-07-20T08:49:51;4.60;;;0.70;;
77018;SDS011;66044;53.142;17.962;2023-07-20T08:52:21;2.40;;;0.50;;
77018;SDS011;66044;53.142;17.962;2023-07-20T08:54:47;2.80;;;0.70;;
77018;SDS011;66044;53.142;17.962;2023-07-20T08:57:15;2.80;;;0.40;;
77018;SDS011;66044;53.142;17.962;2023-07-20T08:59:42;2.50;;;0.50;;
77018;SDS011;66044;53.142;17.962;2023-07-20T09:02:10;2.30;;;0.50;;
77018;SDS011;66044;53.142;17.962;2023-07-20T09:04:44;2.70;;;0.60;;
77018;SDS011;66044;53.142;17.962;2023-07-20T09:07:11;2.80;;;0.50;;
77018;SDS011;66044;53.142;17.962;2023-07-20T09:09:40;2.70;;;0.60;;
77018;SDS011;66044;53.142;17.962;2023-07-20T09:12:13;4.60;;;0.70;;
77018;SDS011;66044;53.142;17.962;2023-07-20T09:14:43;2.60;;;0.50;;
77018;SDS011;66044;53.142;17.962;2023-07-20T09:17:13;2.90;;;0.50;;
77018;SDS011;66044;53.142;17.962;2023-07-20T09:19:47;2.70;;;0.50;;
77018;SDS011;66044;53.142;17.962;2023-07-20T09:22:14;4.30;;;0.70;;
77018;SDS011;66044;53.142;17.962;2023-07-20T09:24:41;2.90;;;0.50;;
77018;SDS011;66044;53.142;17.962;2023-07-20T09:27:08;1.90;;;0.40;;
77018;SDS011;66044;53.142;17.962;2023-07-20T09:29:46;1.70;;;0.30;;
77018;SDS011;66044;53.142;17.962;2023-07-20T09:32:20;1.80;;;0.40;;
77018;SDS011;66044;53.142;17.962;2023-07-20T09:34:49;4.60;;;0.50;;
77018;SDS011;66044;53.142;17.962;2023-07-20T09:37:21;1.80;;;0.40;;
77018;SDS011;66044;53.142;17.962;2023-07-20T09:39:51;3.30;;;0.70;;
77018;SDS011;66044;53.142;17.962;2023-07-20T09:42:21;2.50;;;0.40;;
77018;SDS011;66044;53.142;17.962;2023-07-20T09:44:48;1.50;;;0.40;;
77018;SDS011;66044;53.142;17.962;2023-07-20T09:47:21;1.80;;;0.50;;
77018;SDS011;66044;53.142;17.962;2023-07-20T09:49:49;3.00;;;0.40;;
77018;SDS011;66044;53.142;17.962;2023-07-20T09:52:15;3.10;;;0.60;;
77018;SDS011;66044;53.142;17.962;2023-07-20T09:54:44;2.40;;;0.40;;
77018;SDS011;66044;53.142;17.962;2023-07-20T09:57:12;2.40;;;0.50;;
77018;SDS011;66044;53.142;17.962;2023-07-20T09:59:40;3.60;;;0.40;;
77018;SDS011;66044;53.142;17.962;2023-07-20T10:02:09;2.20;;;0.40;;
77018;SDS011;66044;53.142;17.962;2023-07-20T10:04:44;1.50;;;0.50;;
77018;SDS011;66044;53.142;17.962;2023-07-20T10:07:12;1.80;;;0.50;;
77018;SDS011;66044;53.142;17.962;2023-07-20T10:09:40;1.90;;;0.50;;
77018;SDS011;66044;53.142;17.962;2023-07-20T10:12:08;2.80;;;0.30;;
77018;SDS011;66044;53.142;17.962;2023-07-20T10:14:38;2.00;;;0.50;;
77018;SDS011;66044;53.142;17.962;2023-07-20T10:17:11;3.40;;;0.40;;
77018;SDS011;66044;53.142;17.962;2023-07-20T10:19:42;2.60;;;0.70;;
77018;SDS011;66044;53.142;17.962;2023-07-20T10:22:12;2.10;;;0.40;;
77018;SDS011;66044;53.142;17.962;2023-07-20T10:24:45;2.10;;;0.50;;
77018;SDS011;66044;53.142;17.962;2023-07-20T10:27:14;2.70;;;0.40;;
77018;SDS011;66044;53.142;17.962;2023-07-20T10:29:41;2.70;;;0.60;;
77018;SDS011;66044;53.142;17.962;2023-07-20T10:32:08;1.60;;;0.40;;
77018;SDS011;66044;53.142;17.962;2023-07-20T10:34:36;2.30;;;0.40;;
77018;SDS011;66044;53.142;17.962;2023-07-20T10:37:03;2.40;;;0.40;;
77018;SDS011;66044;53.142;17.962;2023-07-20T10:39:33;2.90;;;0.60;;
77018;SDS011;66044;53.142;17.962;2023-07-20T10:42:01;4.40;;;0.50;;
77018;SDS011;66044;53.142;17.962;2023-07-20T10:44:29;3.00;;;0.60;;
77018;SDS011;66044;53.142;17.962;2023-07-20T10:47:03;2.10;;;0.40;;
77018;SDS011;66044;53.142;17.962;2023-07-20T10:49:35;2.70;;;0.40;;
77018;SDS011;66044;53.142;17.962;2023-07-20T10:52:26;3.10;;;0.50;;
77018;SDS011;66044;53.142;17.962;2023-07-20T10:55:18;1.50;;;0.40;;
77018;SDS011;66044;53.142;17.962;2023-07-20T10:58:05;2.10;;;0.40;;
77018;SDS011;66044;53.142;17.962;2023-07-20T11:00:33;1.70;;;0.50;;
77018;SDS011;66044;53.142;17.962;2023-07-20T11:03:00;3.60;;;0.60;;
77018;SDS011;66044;53.142;17.962;2023-07-20T11:05:33;2.70;;;0.50;;
77018;SDS011;66044;53.142;17.962;2023-07-20T11:08:45;2.90;;;0.60;;
77018;SDS011;66044;53.142;17.962;2023-07-20T11:11:23;2.50;;;0.60;;
77018;SDS011;66044;53.142;17.962;2023-07-20T11:14:01;3.80;;;0.80;;
77018;SDS011;66044;53.142;17.962;2023-07-20T11:16:33;2.30;;;0.60;;
77018;SDS011;66044;53.142;17.962;2023-07-20T11:19:01;2.00;;;0.50;;
77018;SDS011;66044;53.142;17.962;2023-07-20T11:21:29;2.40;;;0.40;;
77018;SDS011;66044;53.142;17.962;2023-07-20T11:24:05;3.20;;;0.40;;
77018;SDS011;66044;53.142;17.962;2023-07-20T11:29:11;2.60;;;0.40;;
77018;SDS011;66044;53.142;17.962;2023-07-20T11:31:39;2.30;;;0.40;;
77018;SDS011;66044;53.142;17.962;2023-07-20T11:34:09;2.90;;;0.50;;
77018;SDS011;66044;53.142;17.962;2023-07-20T11:36:41;2.80;;;0.60;;
77018;SDS011;66044;53.142;17.962;2023-07-20T11:39:09;5.40;;;0.60;;
77018;SDS011;66044;53.142;17.962;2023-07-20T11:41:37;5.60;;;0.80;;
77018;SDS011;66044;53.142;17.962;2023-07-20T11:44:04;6.20;;;0.70;;
77018;SDS011;66044;53.142;17.962;2023-07-20T11:46:34;5.80;;;1.00;;
77018;SDS011;66044;53.142;17.962;2023-07-20T11:49:01;3.40;;;0.60;;
77018;SDS011;66044;53.142;17.962;2023-07-20T11:51:28;4.80;;;0.90;;
77018;SDS011;66044;53.142;17.962;2023-07-20T11:53:56;4.50;;;0.80;;
77018;SDS011;66044;53.142;17.962;2023-07-20T11:56:24;5.50;;;0.80;;
77018;SDS011;66044;53.142;17.962;2023-07-20T11:58:54;4.40;;;0.80;;
77018;SDS011;66044;53.142;17.962;2023-07-20T12:01:23;5.20;;;0.80;;
77018;SDS011;66044;53.142;17.962;2023-07-20T12:03:49;4.20;;;0.60;;
77018;SDS011;66044;53.142;17.962;2023-07-20T12:06:16;3.60;;;0.70;;
77018;SDS011;66044;53.142;17.962;2023-07-20T12:08:43;5.30;;;0.80;;
77018;SDS011;66044;53.142;17.962;2023-07-20T12:11:10;3.90;;;0.60;;
77018;SDS011;66044;53.142;17.962;2023-07-20T12:13:38;3.90;;;0.60;;
77018;SDS011;66044;53.142;17.962;2023-07-20T12:16:14;3.50;;;0.60;;
77018;SDS011;66044;53.142;17.962;2023-07-20T12:18:43;2.50;;;0.70;;
77018;SDS011;66044;53.142;17.962;2023-07-20T12:21:10;8.90;;;0.80;;
77018;SDS011;66044;53.142;17.962;2023-07-20T12:23:38;3.30;;;0.80;;
77018;SDS011;66044;53.142;17.962;2023-07-20T12:26:07;3.30;;;0.80;;
77018;SDS011;66044;53.142;17.962;2023-07-20T12:28:36;3.90;;;1.00;;
77018;SDS011;66044;53.142;17.962;2023-07-20T12:31:07;2.90;;;0.60;;
77018;SDS011;66044;53.142;17.962;2023-07-20T12:33:36;2.50;;;0.70;;
77018;SDS011;66044;53.142;17.962;2023-07-20T12:36:04;4.40;;;1.00;;
77018;SDS011;66044;53.142;17.962;2023-07-20T12:38:31;2.60;;;0.70;;
77018;SDS011;66044;53.142;17.962;2023-07-20T12:40:58;4.10;;;0.60;;
77018;SDS011;66044;53.142;17.962;2023-07-20T12:43:26;2.80;;;0.60;;
77018;SDS011;66044;53.142;17.962;2023-07-20T12:45:54;3.30;;;0.60;;
77018;SDS011;66044;53.142;17.962;2023-07-20T12:48:23;2.50;;;0.70;;
77018;SDS011;66044;53.142;17.962;2023-07-20T12:50:50;2.70;;;0.80;;
77018;SDS011;66044;53.142;17.962;2023-07-20T12:53:16;2.40;;;0.70;;
77018;SDS011;66044;53.142;17.962;2023-07-20T12:55:43;2.30;;;0.60;;
77018;SDS011;66044;53.142;17.962;2023-07-20T12:58:11;2.80;;;0.60;;
77018;SDS011;66044;53.142;17.962;2023-07-20T13:00:38;2.80;;;0.50;;
77018;SDS011;66044;53.142;17.962;2023-07-20T13:03:05;2.80;;;0.50;;
77018;SDS011;66044;53.142;17.962;2023-07-20T13:05:33;2.10;;;0.50;;
77018;SDS011;66044;53.142;17.962;2023-07-20T13:08:01;1.50;;;0.50;;
77018;SDS011;66044;53.142;17.962;2023-07-20T13:10:28;3.50;;;0.70;;
77018;SDS011;66044;53.142;17.962;2023-07-20T13:12:55;4.00;;;0.90;;
77018;SDS011;66044;53.142;17.962;2023-07-20T13:15:24;2.90;;;0.70;;
77018;SDS011;66044;53.142;17.962;2023-07-20T13:17:56;1.90;;;0.60;;
77018;SDS011;66044;53.142;17.962;2023-07-20T13:20:22;3.20;;;1.00;;
77018;SDS011;66044;53.142;17.962;2023-07-20T13:22:49;3.00;;;0.40;;
77018;SDS011;66044;53.142;17.962;2023-07-20T13:25:15;2.30;;;0.60;;
77018;SDS011;66044;53.142;17.962;2023-07-20T13:27:42;1.60;;;0.40;;
77018;SDS011;66044;53.142;17.962;2023-07-20T13:30:08;2.30;;;0.60;;
77018;SDS011;66044;53.142;17.962;2023-07-20T13:32:39;2.00;;;0.60;;
77018;SDS011;66044;53.142;17.962;2023-07-20T13:35:06;1.90;;;0.50;;
77018;SDS011;66044;53.142;17.962;2023-07-20T13:37:32;2.00;;;0.40;;
77018;SDS011;66044;53.142;17.962;2023-07-20T13:39:59;2.60;;;0.60;;
77018;SDS011;66044;53.142;17.962;2023-07-20T13:42:26;2.70;;;0.60;;
77018;SDS011;66044;53.142;17.962;2023-07-20T13:44:53;2.20;;;0.60;;
77018;SDS011;66044;53.142;17.962;2023-07-20T13:47:19;1.50;;;0.40;;
77018;SDS011;66044;53.142;17.962;2023-07-20T13:49:46;2.10;;;0.50;;
77018;SDS011;66044;53.142;17.962;2023-07-20T13:52:12;1.90;;;0.50;;
77018;SDS011;66044;53.142;17.962;2023-07-20T13:54:38;1.70;;;0.50;;
77018;SDS011;66044;53.142;17.962;2023-07-20T13:57:05;1.50;;;0.50;;
77018;SDS011;66044;53.142;17.962;2023-07-20T13:59:31;2.20;;;0.40;;
77018;SDS011;66044;53.142;17.962;2023-07-20T14:01:58;1.20;;;0.30;;
77018;SDS011;66044;53.142;17.962;2023-07-20T14:04:24;2.10;;;0.60;;
77018;SDS011;66044;53.142;17.962;2023-07-20T14:06:51;1.20;;;0.30;;
77018;SDS011;66044;53.142;17.962;2023-07-20T14:09:17;2.30;;;0.50;;
77018;SDS011;66044;53.142;17.962;2023-07-20T14:11:44;1.50;;;0.50;;
77018;SDS011;66044;53.142;17.962;2023-07-20T14:14:10;1.60;;;0.50;;
77018;SDS011;66044;53.142;17.962;2023-07-20T14:16:37;1.20;;;0.30;;
77018;SDS011;66044;53.142;17.962;2023-07-20T14:19:03;1.10;;;0.40;;
77018;SDS011;66044;53.142;17.962;2023-07-20T14:21:31;1.80;;;0.40;;
77018;SDS011;66044;53.142;17.962;2023-07-20T14:23:57;2.20;;;0.40;;
77018;SDS011;66044;53.142;17.962;2023-07-20T14:26:24;1.60;;;0.30;;
77018;SDS011;66044;53.142;17.962;2023-07-20T14:28:51;2.50;;;0.60;;
77018;SDS011;66044;53.142;17.962;2023-07-20T14:31:17;2.60;;;0.50;;
77018;SDS011;66044;53.142;17.962;2023-07-20T14:33:46;1.80;;;0.40;;
77018;SDS011;66044;53.142;17.962;2023-07-20T14:36:12;1.40;;;0.30;;
77018;SDS011;66044;53.142;17.962;2023-07-20T14:38:39;4.20;;;0.40;;
77018;SDS011;66044;53.142;17.962;2023-07-20T14:41:07;2.70;;;0.40;;
77018;SDS011;66044;53.142;17.962;2023-07-20T14:43:33;1.00;;;0.30;;
77018;SDS011;66044;53.142;17.962;2023-07-20T14:46:00;1.50;;;0.40;;
77018;SDS011;66044;53.142;17.962;2023-07-20T14:48:26;2.10;;;0.50;;
77018;SDS011;66044;53.142;17.962;2023-07-20T14:50:53;1.70;;;0.50;;
77018;SDS011;66044;53.142;17.962;2023-07-20T14:53:19;1.80;;;0.40;;